Time;durP1;ratioP1;P1;durP2;ratioP2;P2;SDS_P1;SDS_P2;PMS_P1;PMS_P2;Temp;Humidity;BMP_temperature;BMP_pressure;BME280_temperature;BME280_humidity;BME280_pressure;Samples;Min_cycle;Max_cycle;Signal;HPM_P1;HPM_P2
2021/09/21 00:01:07;;;;;;;23.77;18.98;;;12.40;99.90;;;;;;4952879;28;20044;-71
2021/09/21 00:03:34;;;;;;;23.95;17.85;;;12.40;99.90;;;;;;4953132;28;20039;-70
2021/09/21 00:06:02;;;;;;;24.63;17.50;;;12.30;99.90;;;;;;4952182;28;20027;-73
2021/09/21 00:08:27;;;;;;;26.77;19.27;;;12.30;99.90;;;;;;4952670;28;20028;-71
2021/09/21 00:10:58;;;;;;;26.90;19.55;;;12.40;99.90;;;;;;4952751;28;20037;-71
2021/09/21 00:13:25;;;;;;;26.20;19.63;;;12.60;99.90;;;;;;4952503;28;20406;-73
2021/09/21 00:15:52;;;;;;;27.05;18.45;;;12.60;99.90;;;;;;4951018;28;20110;-73
2021/09/21 00:18:17;;;;;;;25.15;17.92;;;12.50;99.90;;;;;;4952496;28;20039;-72
2021/09/21 00:20:43;;;;;;;23.95;18.15;;;12.40;99.90;;;;;;4952971;28;20401;-72
2021/09/21 00:23:09;;;;;;;22.25;17.58;;;12.40;99.90;;;;;;4952635;28;20043;-73
2021/09/21 00:25:35;;;;;;;24.77;18.10;;;12.40;99.90;;;;;;4951899;28;20110;-72
2021/09/21 00:28:02;;;;;;;27.15;18.45;;;12.60;99.90;;;;;;4958784;28;20027;-72
2021/09/21 00:30:28;;;;;;;26.08;18.10;;;12.50;99.90;;;;;;4964488;29;20026;-72
2021/09/21 00:33:04;;;;;;;24.67;18.02;;;12.50;99.90;;;;;;4953995;28;20110;-71
2021/09/21 00:35:32;;;;;;;24.73;17.67;;;12.60;99.90;;;;;;4952010;28;20015;-72
2021/09/21 00:37:59;;;;;;;20.83;16.27;;;12.60;99.90;;;;;;4952436;29;20038;-72
2021/09/21 00:40:26;;;;;;;22.27;16.85;;;12.60;99.90;;;;;;4975936;23;20046;-72
2021/09/21 00:42:52;;;;;;;19.60;15.50;;;12.50;99.90;;;;;;4971948;28;20388;-72
2021/09/21 00:45:23;;;;;;;21.73;14.65;;;12.40;99.90;;;;;;4986528;28;20058;-73
2021/09/21 00:47:50;;;;;;;21.17;16.02;;;12.40;99.90;;;;;;4986972;28;20026;-73
2021/09/21 00:50:16;;;;;;;23.45;17.35;;;12.50;99.90;;;;;;4971828;28;20062;-71
2021/09/21 00:52:42;;;;;;;19.52;14.85;;;12.60;99.90;;;;;;4975770;28;20061;-71
2021/09/21 00:55:08;;;;;;;19.73;15.32;;;12.50;99.90;;;;;;4990057;28;20031;-72
2021/09/21 00:57:36;;;;;;;23.65;16.90;;;12.50;99.90;;;;;;4975771;28;20022;-72
2021/09/21 01:00:05;;;;;;;22.92;16.95;;;12.50;99.90;;;;;;4975601;28;20105;-72
2021/09/21 01:02:30;;;;;;;27.05;18.38;;;12.40;99.90;;;;;;4975295;28;20472;-73
2021/09/21 01:04:56;;;;;;;26.27;17.98;;;12.40;99.90;;;;;;4974860;28;20034;-73
2021/09/21 01:07:22;;;;;;;24.67;18.30;;;12.40;99.90;;;;;;4975542;28;20019;-73
2021/09/21 01:09:48;;;;;;;28.85;19.52;;;12.40;99.90;;;;;;4975211;28;20062;-73
2021/09/21 01:12:13;;;;;;;23.42;17.77;;;12.50;99.90;;;;;;4974117;28;20023;-73
2021/09/21 01:14:39;;;;;;;25.25;18.98;;;12.50;99.90;;;;;;4974821;28;20089;-72
2021/09/21 01:17:05;;;;;;;28.80;20.70;;;12.60;99.90;;;;;;4975161;28;20413;-73
2021/09/21 01:19:30;;;;;;;22.55;17.90;;;12.50;99.90;;;;;;4975084;28;20559;-73
2021/09/21 01:21:56;;;;;;;29.33;20.70;;;12.50;99.90;;;;;;4975264;28;20378;-74
2021/09/21 01:24:22;;;;;;;25.40;18.95;;;12.40;99.90;;;;;;4974608;28;20038;-74
2021/09/21 01:26:48;;;;;;;23.20;18.45;;;12.40;99.90;;;;;;4975004;28;20027;-74
2021/09/21 01:29:15;;;;;;;27.73;19.50;;;12.40;99.90;;;;;;4975224;28;20031;-73
2021/09/21 01:31:41;;;;;;;27.50;19.33;;;12.40;99.90;;;;;;4974915;28;20097;-73
2021/09/21 01:34:08;;;;;;;27.38;19.13;;;12.40;99.90;;;;;;4975196;28;20033;-73
2021/09/21 01:36:34;;;;;;;28.00;20.48;;;12.50;99.90;;;;;;4972922;28;20063;-73
2021/09/21 01:39:00;;;;;;;27.35;19.52;;;12.40;99.90;;;;;;4991507;28;20058;-74
2021/09/21 01:41:26;;;;;;;28.95;20.88;;;12.50;99.90;;;;;;4978432;28;20043;-73
2021/09/21 01:43:52;;;;;;;28.23;20.02;;;12.60;99.90;;;;;;4975416;28;20054;-74
2021/09/21 01:46:20;;;;;;;27.90;19.83;;;12.60;99.90;;;;;;4974110;28;20078;-74
2021/09/21 01:48:47;;;;;;;32.03;21.05;;;12.60;99.90;;;;;;4974642;28;20034;-73
2021/09/21 01:51:15;;;;;;;30.33;21.60;;;12.60;99.90;;;;;;4974583;28;20019;-73
2021/09/21 01:53:47;;;;;;;34.10;21.08;;;12.80;99.90;;;;;;4974730;28;20137;-73
2021/09/21 01:58:57;;;;;;;28.52;20.10;;;12.70;99.90;;;;;;4974435;28;20616;-73
2021/09/21 02:01:26;;;;;;;27.77;20.40;;;12.70;99.90;;;;;;4974385;28;20105;-73
2021/09/21 02:03:55;;;;;;;27.00;20.02;;;12.80;99.90;;;;;;4976141;28;20033;-73
2021/09/21 02:06:24;;;;;;;31.20;20.70;;;12.70;99.90;;;;;;4974954;28;20030;-73
2021/09/21 02:08:50;;;;;;;28.15;21.33;;;12.70;99.90;;;;;;4976067;28;20366;-73
2021/09/21 02:11:16;;;;;;;32.40;21.33;;;12.80;99.90;;;;;;4975281;28;20018;-73
2021/09/21 02:13:41;;;;;;;28.50;21.00;;;12.80;99.90;;;;;;4975046;28;20068;-74
2021/09/21 02:16:07;;;;;;;27.30;19.80;;;12.70;99.90;;;;;;4973026;28;20126;-73
2021/09/21 02:18:33;;;;;;;27.90;20.30;;;12.60;99.90;;;;;;4974740;28;20066;-73
2021/09/21 02:20:59;;;;;;;25.50;19.45;;;12.60;99.90;;;;;;4974573;28;20045;-73
2021/09/21 02:23:25;;;;;;;24.67;19.83;;;12.50;99.90;;;;;;4980173;28;20039;-74
2021/09/21 02:25:50;;;;;;;25.48;18.52;;;12.50;99.90;;;;;;4983965;28;20038;-74
2021/09/21 02:28:16;;;;;;;26.77;20.35;;;12.60;99.90;;;;;;4975499;28;20027;-74
2021/09/21 02:30:42;;;;;;;27.92;19.67;;;12.70;99.90;;;;;;4977079;28;20025;-75
2021/09/21 02:33:09;;;;;;;30.85;21.45;;;12.80;99.90;;;;;;4976179;28;20098;-73
2021/09/21 02:35:35;;;;;;;27.25;20.42;;;12.80;99.90;;;;;;4974447;28;20023;-73
2021/09/21 02:38:00;;;;;;;30.63;21.67;;;12.90;99.90;;;;;;4976043;28;20018;-71
2021/09/21 02:40:28;;;;;;;29.02;21.90;;;12.90;99.90;;;;;;4973437;28;20507;-74
2021/09/21 02:42:54;;;;;;;27.27;19.10;;;12.90;99.90;;;;;;4974488;28;20114;-71
2021/09/21 02:45:20;;;;;;;27.75;18.48;;;12.80;99.90;;;;;;4975113;28;20113;-73
2021/09/21 02:47:46;;;;;;;26.80;19.67;;;12.80;99.90;;;;;;4974576;28;20019;-72
2021/09/21 02:50:12;;;;;;;27.30;20.25;;;12.90;99.90;;;;;;4973904;28;20078;-72
2021/09/21 02:52:38;;;;;;;27.40;19.27;;;12.90;99.90;;;;;;4973697;28;20494;-72
2021/09/21 02:55:04;;;;;;;28.15;18.58;;;12.90;99.90;;;;;;4972483;28;20445;-72
2021/09/21 02:57:33;;;;;;;29.73;20.60;;;12.90;99.90;;;;;;4973658;28;20030;-72
2021/09/21 02:59:59;;;;;;;22.60;17.98;;;12.90;99.90;;;;;;4973627;28;20615;-72
2021/09/21 03:02:25;;;;;;;25.02;18.30;;;12.90;99.90;;;;;;4973520;28;20401;-72
2021/09/21 03:04:57;;;;;;;22.13;18.23;;;12.80;99.90;;;;;;4972848;28;20046;-72
2021/09/21 03:07:45;;;;;;;23.65;17.77;;;12.70;99.90;;;;;;4973340;28;20105;-72
2021/09/21 03:10:39;;;;;;;24.83;18.10;;;12.80;99.90;;;;;;4971668;28;20085;-72
2021/09/21 03:18:42;;;;;;;28.88;18.83;;;12.80;99.90;;;;;;4972698;28;20077;-73
2021/09/21 03:21:08;;;;;;;28.17;19.77;;;12.90;99.90;;;;;;4971587;28;20034;-73
2021/09/21 03:23:33;;;;;;;25.92;18.83;;;12.90;99.90;;;;;;4973000;28;20060;-72
2021/09/21 03:25:59;;;;;;;26.95;20.00;;;13.00;99.90;;;;;;4971991;28;20038;-73
2021/09/21 03:28:25;;;;;;;31.17;19.73;;;13.00;99.90;;;;;;4972629;28;20517;-72
2021/09/21 03:30:50;;;;;;;28.20;19.77;;;13.00;99.90;;;;;;4972668;28;20387;-73
2021/09/21 03:33:16;;;;;;;28.20;19.63;;;13.00;99.90;;;;;;4972941;28;20469;-73
2021/09/21 03:35:42;;;;;;;29.33;20.25;;;12.90;99.90;;;;;;4972186;28;20026;-74
2021/09/21 03:38:08;;;;;;;29.50;20.30;;;12.90;99.90;;;;;;4972859;28;20023;-75
2021/09/21 03:40:34;;;;;;;27.17;19.88;;;13.00;99.90;;;;;;4963471;28;20035;-82
2021/09/21 03:43:00;;;;;;;25.33;19.33;;;13.00;99.90;;;;;;4977991;28;20027;-81
2021/09/21 03:45:26;;;;;;;26.02;18.98;;;12.90;99.90;;;;;;4980662;28;20033;-81
2021/09/21 03:47:53;;;;;;;28.52;21.13;;;13.00;99.90;;;;;;4989288;28;20019;-81
2021/09/21 03:50:19;;;;;;;22.55;16.92;;;13.10;99.90;;;;;;4975925;28;20023;-81
2021/09/21 03:52:45;;;;;;;30.83;20.95;;;13.00;99.90;;;;;;4974816;28;20018;-81
2021/09/21 03:55:11;;;;;;;26.17;19.77;;;13.00;99.90;;;;;;4974181;28;20022;-81
2021/09/21 03:57:37;;;;;;;25.58;19.67;;;13.10;99.90;;;;;;4979297;28;20029;-82
2021/09/21 04:00:05;;;;;;;30.90;20.88;;;13.00;99.90;;;;;;4994710;28;20030;-81
2021/09/21 04:02:30;;;;;;;30.92;21.27;;;13.00;99.90;;;;;;4994918;28;20153;-81
2021/09/21 04:04:56;;;;;;;33.88;21.33;;;13.00;99.90;;;;;;5009659;28;20500;-81
2021/09/21 04:07:22;;;;;;;29.00;20.88;;;13.00;99.90;;;;;;4994320;28;20492;-82
2021/09/21 04:09:47;;;;;;;28.45;20.52;;;13.00;99.90;;;;;;4989304;28;20097;-83
2021/09/21 04:12:13;;;;;;;30.48;20.08;;;13.00;99.90;;;;;;4972968;28;20035;-82
2021/09/21 04:14:39;;;;;;;29.13;20.10;;;12.90;99.90;;;;;;4975341;28;20045;-82
2021/09/21 04:17:05;;;;;;;28.23;20.02;;;12.80;99.90;;;;;;4974281;28;20433;-81
2021/09/21 04:19:30;;;;;;;28.42;20.50;;;12.90;99.90;;;;;;4974985;28;20026;-82
2021/09/21 04:21:56;;;;;;;30.50;20.90;;;12.90;99.90;;;;;;4974353;28;20731;-82
2021/09/21 04:24:21;;;;;;;26.17;19.35;;;13.00;99.90;;;;;;4974849;28;20031;-82
2021/09/21 04:26:47;;;;;;;30.40;20.08;;;13.10;99.90;;;;;;4976214;28;20619;-82
2021/09/21 04:29:13;;;;;;;30.05;21.20;;;13.10;99.90;;;;;;4979090;28;20074;-81
2021/09/21 04:31:42;;;;;;;25.92;19.27;;;13.10;99.90;;;;;;4978190;28;20054;-82
2021/09/21 04:34:11;;;;;;;27.52;19.63;;;13.10;99.90;;;;;;4984814;28;20042;-82
2021/09/21 04:36:37;;;;;;;24.10;18.10;;;13.10;99.90;;;;;;4997588;28;20037;-80
2021/09/21 04:39:03;;;;;;;28.25;18.73;;;13.00;99.90;;;;;;4998550;28;20026;-83
2021/09/21 04:41:29;;;;;;;23.38;18.45;;;13.00;99.90;;;;;;4978947;28;20034;-82
2021/09/21 04:43:54;;;;;;;23.20;17.23;;;13.10;99.90;;;;;;4978282;28;20038;-82
2021/09/21 04:46:20;;;;;;;22.92;17.75;;;13.00;99.90;;;;;;4977247;28;20027;-82
2021/09/21 04:48:46;;;;;;;23.00;17.23;;;13.00;99.90;;;;;;4978052;28;20117;-82
2021/09/21 04:51:11;;;;;;;24.85;19.08;;;13.00;99.90;;;;;;4977426;28;20034;-81
2021/09/21 04:53:37;;;;;;;23.65;17.40;;;13.00;99.90;;;;;;4978267;28;20037;-83
2021/09/21 04:56:03;;;;;;;20.92;15.85;;;13.00;99.90;;;;;;4976061;28;20185;-81
2021/09/21 04:58:28;;;;;;;24.05;17.35;;;13.00;99.90;;;;;;4978184;28;20508;-80
2021/09/21 05:00:55;;;;;;;22.08;16.58;;;13.00;99.90;;;;;;4977970;28;20105;-81
2021/09/21 05:03:20;;;;;;;23.73;18.08;;;13.10;99.90;;;;;;4979001;28;20015;-81
2021/09/21 05:05:46;;;;;;;23.58;16.90;;;13.20;99.90;;;;;;4976791;28;20432;-82
2021/09/21 05:08:12;;;;;;;23.90;18.48;;;13.20;99.90;;;;;;4976709;28;20022;-81
2021/09/21 05:10:37;;;;;;;25.08;18.70;;;13.30;99.90;;;;;;4976888;28;20026;-81
2021/09/21 05:13:03;;;;;;;30.33;19.27;;;13.30;99.90;;;;;;4977673;28;20042;-81
2021/09/21 05:15:29;;;;;;;25.23;17.13;;;13.40;99.90;;;;;;4978920;28;20027;-81
2021/09/21 05:17:55;;;;;;;26.70;17.52;;;13.40;99.90;;;;;;4984125;28;20489;-80
2021/09/21 05:20:20;;;;;;;20.05;16.00;;;13.30;99.90;;;;;;4986231;28;20473;-82
2021/09/21 05:22:53;;;;;;;22.83;16.50;;;13.20;99.90;;;;;;4990220;28;20038;-81
2021/09/21 05:25:19;;;;;;;;;;;13.20;99.90;;;;;;4983163;28;20111;-81
2021/09/21 05:27:45;;;;;;;20.20;15.50;;;13.10;99.90;;;;;;4980242;28;19910;-81
2021/09/21 05:30:12;;;;;;;21.75;15.52;;;13.10;99.90;;;;;;4981045;28;20070;-82
2021/09/21 05:32:38;;;;;;;17.60;14.77;;;13.10;99.90;;;;;;4981690;28;20015;-81
2021/09/21 05:35:05;;;;;;;17.90;14.82;;;13.20;99.90;;;;;;4993707;28;20354;-81
2021/09/21 05:37:31;;;;;;;17.55;14.35;;;13.10;99.90;;;;;;4999784;28;20030;-81
2021/09/21 05:39:57;;;;;;;17.52;14.45;;;13.20;99.90;;;;;;4993894;28;20496;-80
2021/09/21 05:42:23;;;;;;;16.77;14.13;;;13.30;99.90;;;;;;4976785;28;20042;-80
2021/09/21 05:44:49;;;;;;;19.17;13.52;;;13.20;99.90;;;;;;4975912;28;20030;-79
2021/09/21 05:47:15;;;;;;;18.70;13.45;;;13.20;99.90;;;;;;4977936;28;20035;-82
2021/09/21 05:49:41;;;;;;;21.25;13.95;;;13.20;99.90;;;;;;4981579;28;20027;-81
2021/09/21 05:52:07;;;;;;;15.00;12.13;;;13.10;99.90;;;;;;4980690;28;20027;-81
2021/09/21 05:54:32;;;;;;;15.05;12.40;;;13.10;99.90;;;;;;4981895;28;20026;-81
2021/09/21 05:56:59;;;;;;;16.42;12.15;;;13.10;99.90;;;;;;4979749;28;20038;-81
2021/09/21 05:59:24;;;;;;;12.90;11.55;;;13.10;99.90;;;;;;4966435;28;20437;-81
2021/09/21 06:01:50;;;;;;;17.83;13.10;;;13.00;99.90;;;;;;4959949;28;20039;-81
2021/09/21 06:04:16;;;;;;;14.13;12.25;;;13.10;99.90;;;;;;4959592;28;20474;-81
2021/09/21 06:06:41;;;;;;;14.15;11.95;;;13.10;99.90;;;;;;4958946;28;20069;-81
2021/09/21 06:09:07;;;;;;;13.68;12.10;;;13.20;99.90;;;;;;4961162;28;20027;-81
2021/09/21 06:11:33;;;;;;;13.48;12.00;;;13.20;99.90;;;;;;4979398;28;20065;-81
2021/09/21 06:14:03;;;;;;;15.68;12.90;;;13.20;99.90;;;;;;4980915;28;20086;-81
2021/09/21 06:16:30;;;;;;;16.50;11.77;;;13.30;99.90;;;;;;4978510;28;20011;-81
2021/09/21 06:18:55;;;;;;;12.93;11.52;;;13.50;99.90;;;;;;4979123;28;20034;-81
2021/09/21 06:21:21;;;;;;;15.00;11.07;;;13.60;99.90;;;;;;4983399;28;20031;-81
2021/09/21 06:23:47;;;;;;;12.85;11.30;;;13.70;99.90;;;;;;4979800;28;20038;-80
2021/09/21 06:26:13;;;;;;;11.45;10.25;;;13.70;99.90;;;;;;4976503;28;20037;-80
2021/09/21 06:28:39;;;;;;;12.43;10.52;;;13.70;99.90;;;;;;4978834;28;20461;-81
2021/09/21 06:31:05;;;;;;;13.02;10.65;;;13.70;99.90;;;;;;4977362;28;20023;-81
2021/09/21 06:33:31;;;;;;;13.38;10.93;;;13.60;99.90;;;;;;4979324;28;20019;-81
2021/09/21 06:35:56;;;;;;;14.38;10.20;;;13.60;99.90;;;;;;4996594;28;20097;-81
2021/09/21 06:38:22;;;;;;;11.60;10.40;;;13.60;99.90;;;;;;5012709;28;20026;-80
2021/09/21 06:40:48;;;;;;;13.90;10.40;;;13.60;99.90;;;;;;4984564;28;20113;-81
2021/09/21 06:43:14;;;;;;;14.35;11.57;;;13.50;99.90;;;;;;4978244;28;20030;-83
2021/09/21 06:45:39;;;;;;;16.00;11.82;;;13.60;99.90;;;;;;4976896;28;20026;-82
2021/09/21 06:48:05;;;;;;;13.90;11.25;;;13.70;99.90;;;;;;4976212;28;20023;-81
2021/09/21 06:50:31;;;;;;;12.65;10.15;;;13.70;99.90;;;;;;4975467;28;20408;-80
2021/09/21 06:52:56;;;;;;;14.32;10.20;;;13.60;99.90;;;;;;4975310;28;20027;-80
2021/09/21 06:55:22;;;;;;;11.63;10.35;;;13.70;99.90;;;;;;4974473;28;20030;-81
2021/09/21 06:57:50;;;;;;;10.57;9.45;;;13.80;99.90;;;;;;4976029;28;20386;-80
2021/09/21 07:00:16;;;;;;;10.77;9.63;;;14.00;99.90;;;;;;4975483;28;20529;-80
2021/09/21 07:02:46;;;;;;;11.65;9.43;;;14.10;99.90;;;;;;4975822;28;20382;-80
2021/09/21 07:05:12;;;;;;;11.52;9.85;;;14.00;99.90;;;;;;4975904;28;20037;-82
2021/09/21 07:07:46;;;;;;;12.30;9.07;;;13.90;99.90;;;;;;4976998;28;20397;-81
2021/09/21 07:10:13;;;;;;;12.02;9.27;;;14.00;99.90;;;;;;4990186;28;20485;-80
2021/09/21 07:12:40;;;;;;;11.68;9.10;;;13.90;99.90;;;;;;4975064;28;20564;-81
2021/09/21 07:15:06;;;;;;;11.02;8.32;;;13.90;99.90;;;;;;4973895;28;20066;-80
2021/09/21 07:17:32;;;;;;;9.98;8.55;;;13.90;99.90;;;;;;4974119;28;20106;-78
2021/09/21 07:19:58;;;;;;;8.57;7.50;;;13.90;99.90;;;;;;4974282;28;20074;-81
2021/09/21 07:22:24;;;;;;;9.63;7.78;;;13.90;99.90;;;;;;4973496;28;20397;-79
2021/09/21 07:24:50;;;;;;;9.40;8.00;;;14.00;99.90;;;;;;4974115;28;20078;-80
2021/09/21 07:27:17;;;;;;;8.82;7.72;;;14.30;99.90;;;;;;4974112;28;20030;-80
2021/09/21 07:29:43;;;;;;;11.23;7.90;;;14.20;99.90;;;;;;4973925;28;20034;-80
2021/09/21 07:32:09;;;;;;;10.27;7.40;;;14.20;99.90;;;;;;4974198;28;20023;-80
2021/09/21 07:34:35;;;;;;;8.70;7.65;;;14.20;99.90;;;;;;4981561;28;20033;-80
2021/09/21 07:37:00;;;;;;;7.45;6.57;;;14.20;99.90;;;;;;4993601;28;20034;-79
2021/09/21 07:39:26;;;;;;;7.82;6.68;;;14.40;99.90;;;;;;4990828;28;20485;-79
2021/09/21 07:41:52;;;;;;;7.72;6.97;;;14.30;99.90;;;;;;4972983;28;20031;-79
2021/09/21 07:44:19;;;;;;;8.60;6.20;;;14.60;99.90;;;;;;4973742;28;20026;-79
2021/09/21 07:46:45;;;;;;;18.58;6.85;;;14.70;99.90;;;;;;4975859;28;20058;-79
2021/09/21 07:49:10;;;;;;;12.07;7.00;;;14.80;99.90;;;;;;4975080;28;20061;-81
2021/09/21 07:51:36;;;;;;;12.38;6.22;;;14.90;99.90;;;;;;4973293;28;20035;-82
2021/09/21 07:54:02;;;;;;;7.15;6.45;;;15.00;99.90;;;;;;4969503;28;20031;-80
2021/09/21 07:56:28;;;;;;;8.93;5.95;;;15.10;99.90;;;;;;4973594;28;20033;-80
2021/09/21 07:58:54;;;;;;;6.70;6.00;;;15.10;99.90;;;;;;4974774;28;20031;-81
2021/09/21 08:01:20;;;;;;;7.25;5.90;;;15.40;99.90;;;;;;4975108;28;20038;-81
2021/09/21 08:03:46;;;;;;;6.93;6.22;;;15.30;99.90;;;;;;4977493;28;20034;-81
2021/09/21 08:06:11;;;;;;;6.38;5.60;;;15.50;99.90;;;;;;4972975;28;20050;-81
2021/09/21 08:08:40;;;;;;;6.63;6.03;;;15.40;99.90;;;;;;4976817;28;20397;-81
2021/09/21 08:11:10;;;;;;;6.82;6.25;;;15.50;99.90;;;;;;4973836;28;20047;-81
2021/09/21 08:13:36;;;;;;;7.85;5.93;;;15.40;99.90;;;;;;4974535;28;20497;-81
2021/09/21 08:16:02;;;;;;;6.85;5.68;;;15.40;99.90;;;;;;4973703;28;20027;-80
2021/09/21 08:18:27;;;;;;;6.68;5.40;;;15.50;99.90;;;;;;4974868;28;20081;-81
2021/09/21 08:20:53;;;;;;;8.25;6.72;;;15.60;99.90;;;;;;4974212;28;20043;-80
2021/09/21 08:23:19;;;;;;;6.45;5.85;;;15.50;99.90;;;;;;4974604;28;20065;-81
2021/09/21 08:25:45;;;;;;;10.50;6.25;;;15.50;99.90;;;;;;4974300;28;20018;-81
2021/09/21 08:28:11;;;;;;;9.82;6.22;;;15.70;99.90;;;;;;4973707;28;20053;-83
2021/09/21 08:30:37;;;;;;;8.20;5.63;;;16.20;99.90;;;;;;4973084;28;20081;-81
2021/09/21 08:33:03;;;;;;;6.10;5.45;;;16.30;99.90;;;;;;4973920;28;20027;-82
2021/09/21 08:35:30;;;;;;;5.85;5.35;;;16.70;99.90;;;;;;4986967;28;20101;-80
2021/09/21 08:37:56;;;;;;;7.25;5.65;;;17.00;99.90;;;;;;4993540;28;20097;-81
2021/09/21 08:40:23;;;;;;;5.78;5.28;;;17.10;99.90;;;;;;4984276;28;20096;-81
2021/09/21 08:42:49;;;;;;;6.28;5.68;;;17.70;99.90;;;;;;4973944;28;20031;-81
2021/09/21 08:45:14;;;;;;;6.90;5.00;;;18.10;99.90;;;;;;4973208;28;20034;-80
2021/09/21 08:47:41;;;;;;;5.82;5.15;;;18.50;99.90;;;;;;4974394;28;20385;-80
2021/09/21 08:50:09;;;;;;;5.90;5.40;;;18.10;99.90;;;;;;4973682;28;20158;-81
2021/09/21 08:52:43;;;;;;;5.53;4.93;;;17.60;99.90;;;;;;4974517;28;20046;-79
2021/09/21 08:55:11;;;;;;;8.25;5.10;;;17.50;99.90;;;;;;4972532;28;20492;-80
2021/09/21 08:57:38;;;;;;;7.55;5.05;;;18.10;99.90;;;;;;4973645;28;20045;-79
2021/09/21 09:00:05;;;;;;;5.30;4.90;;;18.80;99.90;;;;;;4973459;28;20378;-80
2021/09/21 09:02:33;;;;;;;5.22;4.65;;;19.30;99.90;;;;;;4974361;28;20030;-80
2021/09/21 09:05:11;;;;;;;6.15;4.47;;;19.40;99.90;;;;;;4974186;28;20026;-80
2021/09/21 09:07:50;;;;;;;5.22;4.63;;;19.30;99.90;;;;;;4974711;28;20018;-81
2021/09/21 09:10:16;;;;;;;4.45;4.03;;;19.90;99.90;;;;;;4971309;28;20027;-73
2021/09/21 09:12:42;;;;;;;5.25;4.85;;;19.70;99.90;;;;;;4973828;28;20492;-74
2021/09/21 09:15:09;;;;;;;4.50;4.15;;;19.00;99.90;;;;;;4975083;28;20038;-72
2021/09/21 09:17:37;;;;;;;5.88;4.50;;;19.20;99.90;;;;;;4975726;28;20059;-73
2021/09/21 09:20:03;;;;;;;5.03;4.57;;;19.20;99.90;;;;;;4981501;28;20042;-73
2021/09/21 09:22:29;;;;;;;4.70;4.32;;;20.20;99.90;;;;;;4995035;28;20031;-72
2021/09/21 09:25:06;;;;;;;5.30;4.40;;;19.80;99.60;;;;;;4977133;28;20035;-73
2021/09/21 09:27:47;;;;;;;8.48;5.20;;;20.10;99.10;;;;;;4973682;28;20089;-73
2021/09/21 09:30:16;;;;;;;4.65;4.35;;;20.30;97.90;;;;;;4975156;28;20389;-73
2021/09/21 09:33:01;;;;;;;4.47;4.07;;;20.90;98.80;;;;;;4975526;28;20056;-74
2021/09/21 09:35:30;;;;;;;4.82;4.40;;;21.50;97.10;;;;;;4974268;28;20026;-74
2021/09/21 09:37:58;;;;;;;4.38;4.07;;;20.90;95.90;;;;;;4975098;28;20038;-73
2021/09/21 09:40:25;;;;;;;5.18;4.78;;;20.60;96.90;;;;;;4974364;28;20057;-73
2021/09/21 09:42:51;;;;;;;4.25;3.90;;;21.20;97.40;;;;;;4974319;28;20034;-74
2021/09/21 09:45:28;;;;;;;4.68;4.10;;;21.10;96.40;;;;;;4974021;28;20142;-73
2021/09/21 09:47:55;;;;;;;4.63;4.25;;;21.40;96.60;;;;;;4974934;28;20034;-73
2021/09/21 09:50:26;;;;;;;5.22;4.72;;;20.80;97.90;;;;;;4974492;28;20084;-73
2021/09/21 09:53:25;;;;;;;10.33;5.40;;;19.90;98.80;;;;;;4974637;28;20027;-73
2021/09/21 09:55:53;;;;;;;5.30;4.90;;;20.70;98.40;;;;;;4965560;28;20046;-73
2021/09/21 09:58:20;;;;;;;6.60;6.03;;;20.70;98.90;;;;;;4973226;28;20496;-73
2021/09/21 10:00:49;;;;;;;6.30;5.65;;;20.90;97.60;;;;;;4974122;28;20027;-73
2021/09/21 10:03:15;;;;;;;8.65;5.72;;;21.20;97.80;;;;;;4974591;28;20536;-73
2021/09/21 10:05:41;;;;;;;8.80;6.07;;;21.20;97.40;;;;;;4973577;28;20023;-74
2021/09/21 10:08:10;;;;;;;7.30;5.78;;;20.00;98.50;;;;;;4974521;28;20019;-73
2021/09/21 10:10:38;;;;;;;6.55;5.97;;;19.60;99.90;;;;;;4973782;28;20109;-73
2021/09/21 10:13:12;;;;;;;6.85;6.15;;;19.90;99.30;;;;;;4973977;28;20215;-73
2021/09/21 10:15:39;;;;;;;9.57;6.78;;;19.90;99.10;;;;;;4974398;28;20389;-73
2021/09/21 10:18:13;;;;;;;7.10;6.40;;;20.70;99.30;;;;;;4974635;28;20509;-73
2021/09/21 10:20:44;;;;;;;6.05;5.53;;;20.60;98.50;;;;;;4974541;28;20023;-72
2021/09/21 10:23:10;;;;;;;8.45;5.88;;;21.00;98.30;;;;;;4972910;28;20047;-71
2021/09/21 10:25:40;;;;;;;6.80;6.10;;;20.10;98.20;;;;;;4971929;28;20500;-71
2021/09/21 10:28:18;;;;;;;7.10;5.13;;;20.20;99.00;;;;;;4972507;28;20023;-70
2021/09/21 10:30:55;;;;;;;5.78;5.13;;;21.00;98.60;;;;;;4971582;28;20022;-71
2021/09/21 10:33:23;;;;;;;8.93;5.30;;;21.40;96.40;;;;;;4970402;28;20019;-69
2021/09/21 10:35:49;;;;;;;9.52;6.00;;;21.00;96.60;;;;;;4971711;28;20029;-70
2021/09/21 10:38:18;;;;;;;5.28;4.85;;;21.20;96.60;;;;;;4972016;28;20027;-71
2021/09/21 10:40:47;;;;;;;5.85;5.38;;;22.40;95.50;;;;;;4972560;28;20031;-72
2021/09/21 10:43:22;;;;;;;5.05;4.60;;;23.50;94.40;;;;;;4972727;28;20054;-72
2021/09/21 10:45:50;;;;;;;5.03;4.45;;;24.20;92.90;;;;;;4972285;28;20038;-73
2021/09/21 10:48:21;;;;;;;5.53;4.82;;;24.00;92.90;;;;;;4974865;28;20054;-74
2021/09/21 10:50:58;;;;;;;8.50;4.95;;;23.80;91.80;;;;;;4972693;28;20034;-74
2021/09/21 10:53:25;;;;;;;5.38;4.97;;;23.00;92.80;;;;;;4971127;28;20050;-74
2021/09/21 10:55:59;;;;;;;5.50;4.90;;;22.80;91.60;;;;;;4971553;28;20393;-74
2021/09/21 10:58:25;;;;;;;8.60;6.22;;;22.10;93.60;;;;;;4987140;28;20479;-74
2021/09/21 11:00:51;;;;;;;8.65;6.25;;;21.80;94.10;;;;;;4987102;28;20493;-74
2021/09/21 11:03:16;;;;;;;5.57;5.10;;;21.80;94.60;;;;;;4987269;28;20014;-74
2021/09/21 11:05:45;;;;;;;7.75;6.20;;;21.80;94.60;;;;;;4971362;28;20027;-73
2021/09/21 11:08:14;;;;;;;7.85;5.53;;;21.90;94.10;;;;;;4971879;28;20098;-73
2021/09/21 11:10:49;;;;;;;6.00;5.50;;;21.90;94.40;;;;;;4986657;28;20113;-74
2021/09/21 11:13:18;;;;;;;5.93;5.32;;;21.40;94.80;;;;;;4968902;28;20053;-74
2021/09/21 11:15:46;;;;;;;6.82;6.13;;;20.70;96.70;;;;;;4969666;28;20085;-74
2021/09/21 11:18:17;;;;;;;6.30;5.80;;;20.50;96.10;;;;;;4972131;28;20073;-74
2021/09/21 11:20:56;;;;;;;7.47;6.77;;;19.80;96.60;;;;;;4986393;28;20026;-74
2021/09/21 11:23:33;;;;;;;7.13;6.43;;;19.80;97.20;;;;;;4966925;28;20033;-74
2021/09/21 11:26:03;;;;;;;6.97;6.38;;;19.80;97.00;;;;;;4968871;28;20023;-74
2021/09/21 11:28:35;;;;;;;8.45;6.80;;;19.90;98.00;;;;;;4971137;28;20478;-74
2021/09/21 11:31:02;;;;;;;7.03;6.05;;;20.20;96.90;;;;;;4969731;28;20030;-74
2021/09/21 11:33:34;;;;;;;7.90;7.10;;;19.80;97.50;;;;;;4971472;28;20018;-74
2021/09/21 11:36:08;;;;;;;7.20;6.45;;;19.70;99.10;;;;;;4968174;28;20102;-74
2021/09/21 11:38:39;;;;;;;6.60;5.90;;;19.50;97.40;;;;;;4972412;28;20058;-74
2021/09/21 11:41:05;;;;;;;7.30;6.22;;;19.20;97.30;;;;;;4987634;28;20037;-73
2021/09/21 11:43:31;;;;;;;7.28;6.25;;;19.00;98.00;;;;;;4972334;28;20085;-73
2021/09/21 11:45:57;;;;;;;6.95;6.22;;;19.00;97.90;;;;;;4971688;28;20023;-74
2021/09/21 11:48:24;;;;;;;6.68;6.07;;;18.60;98.60;;;;;;4972250;28;20081;-73
2021/09/21 11:50:50;;;;;;;6.85;5.85;;;18.60;99.70;;;;;;4972479;28;20481;-75
2021/09/21 11:53:19;;;;;;;6.82;6.22;;;18.60;98.70;;;;;;4967677;28;20077;-81
2021/09/21 11:55:47;;;;;;;7.88;6.50;;;18.30;98.80;;;;;;4973761;28;20469;-81
2021/09/21 11:58:16;;;;;;;9.45;5.68;;;18.10;99.40;;;;;;4975621;28;20425;-81
2021/09/21 12:00:49;;;;;;;7.50;6.70;;;18.20;99.90;;;;;;4992024;28;20504;-83
2021/09/21 12:03:17;;;;;;;6.80;6.10;;;18.40;99.90;;;;;;4993144;28;20026;-81
2021/09/21 12:05:45;;;;;;;7.20;6.47;;;18.40;99.90;;;;;;4990889;28;20027;-79
2021/09/21 12:08:18;;;;;;;6.70;6.10;;;18.10;99.00;;;;;;4971966;28;20065;-80
2021/09/21 12:10:50;;;;;;;6.63;6.03;;;18.20;99.90;;;;;;4970495;28;20515;-81
2021/09/21 12:13:18;;;;;;;6.00;5.50;;;18.50;99.80;;;;;;4973463;28;20085;-82
2021/09/21 12:15:48;;;;;;;6.68;6.07;;;18.50;99.30;;;;;;4970194;28;20613;-81
2021/09/21 12:18:15;;;;;;;7.43;6.03;;;18.40;99.50;;;;;;4976515;28;20756;-81
2021/09/21 12:20:42;;;;;;;10.55;6.95;;;18.20;99.60;;;;;;4973227;28;20110;-82
2021/09/21 12:23:10;;;;;;;6.13;5.53;;;18.30;99.90;;;;;;4972952;28;20029;-82
2021/09/21 12:25:40;;;;;;;5.80;5.30;;;18.60;99.90;;;;;;4973635;28;20069;-84
2021/09/21 12:28:08;;;;;;;6.05;5.25;;;18.30;99.30;;;;;;4987982;28;20516;-85
2021/09/21 12:30:40;;;;;;;23.65;6.28;;;18.30;99.70;;;;;;4990448;28;20030;-83
2021/09/21 12:33:11;;;;;;;11.13;6.60;;;18.50;99.40;;;;;;4993726;28;20274;-84
2021/09/21 12:35:42;;;;;;;7.13;6.40;;;18.80;98.70;;;;;;4980034;28;20058;-85
2021/09/21 12:38:12;;;;;;;7.63;6.22;;;18.80;98.60;;;;;;4976088;28;20031;-84
2021/09/21 12:40:49;;;;;;;8.45;6.05;;;18.80;98.10;;;;;;4973243;28;20030;-83
2021/09/21 12:43:42;;;;;;;6.43;5.82;;;18.70;97.70;;;;;;4971644;28;20090;-83
2021/09/21 12:46:10;;;;;;;7.72;7.00;;;18.30;98.50;;;;;;4966516;28;20027;-83